Time;durP1;ratioP1;P1;durP2;ratioP2;P2;SDS_P1;SDS_P2;PMS_P1;PMS_P2;Temp;Humidity;BMP_temperature;BMP_pressure;BME280_temperature;BME280_humidity;BME280_pressure;Samples;Min_cycle;Max_cycle;Signal;HPM_P1;HPM_P2
2023/12/23 00:02:14;;;;;;;3.72;2.35;;;;;;;;;;4932991;28;20062;-71
2023/12/23 00:04:42;;;;;;;2.20;1.92;;;;;;;;;;4950369;28;20051;-71
2023/12/23 00:07:12;;;;;;;3.47;1.90;;;;;;;;;;4988527;28;20028;-71
2023/12/23 00:09:38;;;;;;;2.35;2.00;;;;;;;;;;4941954;28;20458;-70
2023/12/23 00:12:07;;;;;;;2.33;2.20;;;;;;;;;;4939988;28;20387;-71
2023/12/23 00:14:33;;;;;;;2.17;1.60;;;;;;;;;;4941102;28;20400;-71
2023/12/23 00:17:00;;;;;;;2.10;1.90;;;;;;;;;;4941273;28;20050;-71
2023/12/23 00:19:26;;;;;;;2.05;1.80;;;;;;;;;;4961694;28;20024;-71
2023/12/23 00:21:54;;;;;;;2.28;1.80;;;;;;;;;;4955764;28;20581;-70
2023/12/23 00:24:21;;;;;;;3.10;1.75;;;;;;;;;;4948597;28;20150;-70
2023/12/23 00:26:47;;;;;;;2.33;1.60;;;;;;;;;;4948978;28;20027;-71
2023/12/23 00:29:13;;;;;;;1.50;1.40;;;;;;;;;;4939827;28;20047;-72
2023/12/23 00:31:39;;;;;;;3.17;1.60;;;;;;;;;;4937264;28;20073;-71
2023/12/23 00:34:06;;;;;;;2.20;1.83;;;;;;;;;;4965787;28;20042;-71
2023/12/23 00:36:32;;;;;;;1.30;1.20;;;;;;;;;;4952056;28;20043;-71
2023/12/23 00:38:58;;;;;;;4.43;1.63;;;;;;;;;;4952132;28;20363;-71
2023/12/23 00:41:24;;;;;;;2.63;1.58;;;;;;;;;;5017519;28;20471;-72
2023/12/23 00:43:51;;;;;;;3.50;1.67;;;;;;;;;;4966634;28;20093;-72
2023/12/23 00:46:17;;;;;;;5.20;1.75;;;;;;;;;;4939362;28;20081;-71
2023/12/23 00:48:44;;;;;;;3.47;1.92;;;;;;;;;;4943040;28;20030;-71
2023/12/23 00:51:10;;;;;;;2.03;1.60;;;;;;;;;;4948969;28;20042;-71
2023/12/23 00:53:36;;;;;;;4.85;2.13;;;;;;;;;;4951930;28;20038;-72
2023/12/23 00:56:03;;;;;;;3.03;2.40;;;;;;;;;;4974838;28;20496;-72
2023/12/23 00:58:29;;;;;;;6.05;2.17;;;;;;;;;;4965525;28;20035;-71
2023/12/23 01:00:55;;;;;;;5.53;2.30;;;;;;;;;;4962553;28;20031;-72
2023/12/23 01:03:21;;;;;;;11.45;3.17;;;;;;;;;;4962898;28;20034;-73
2023/12/23 01:05:48;;;;;;;5.22;2.83;;;;;;;;;;4960996;28;20470;-71
2023/12/23 01:08:14;;;;;;;4.82;2.03;;;;;;;;;;4966750;28;20521;-71
2023/12/23 01:10:40;;;;;;;9.90;2.47;;;;;;;;;;4970206;28;20106;-71
2023/12/23 01:13:06;;;;;;;7.28;2.60;;;;;;;;;;4999763;28;20077;-71
2023/12/23 01:15:32;;;;;;;6.75;2.50;;;;;;;;;;4962705;28;20491;-73
2023/12/23 01:17:59;;;;;;;5.38;1.80;;;;;;;;;;4959167;28;20059;-71
2023/12/23 01:20:25;;;;;;;6.80;2.45;;;;;;;;;;4966087;28;20027;-72
2023/12/23 01:22:51;;;;;;;8.73;2.67;;;;;;;;;;4958158;28;20605;-72
2023/12/23 01:25:17;;;;;;;4.45;2.80;;;;;;;;;;4964651;28;20054;-71
2023/12/23 01:27:43;;;;;;;6.63;2.60;;;;;;;;;;4960153;28;20058;-71
2023/12/23 01:30:10;;;;;;;4.82;2.28;;;;;;;;;;4999098;28;20033;-71
2023/12/23 01:32:36;;;;;;;7.60;2.60;;;;;;;;;;4960445;28;20360;-71
2023/12/23 01:35:02;;;;;;;9.45;1.90;;;;;;;;;;4958543;28;20023;-71
2023/12/23 01:37:28;;;;;;;6.40;2.92;;;;;;;;;;4976714;28;20025;-72
2023/12/23 01:39:54;;;;;;;6.68;2.13;;;;;;;;;;4971790;28;20021;-72
2023/12/23 01:42:20;;;;;;;7.93;2.90;;;;;;;;;;5003148;28;20080;-72
2023/12/23 01:44:47;;;;;;;6.53;2.03;;;;;;;;;;4995671;28;20032;-71
2023/12/23 01:47:13;;;;;;;7.75;2.15;;;;;;;;;;4975834;28;20023;-72
2023/12/23 01:49:42;;;;;;;8.65;2.92;;;;;;;;;;4988117;28;20034;-71
2023/12/23 01:52:09;;;;;;;4.22;2.40;;;;;;;;;;4967196;28;20027;-72
2023/12/23 01:54:35;;;;;;;3.80;1.92;;;;;;;;;;4964206;28;21271;-71
2023/12/23 01:57:01;;;;;;;9.48;2.30;;;;;;;;;;4963848;28;20426;-72
2023/12/23 01:59:27;;;;;;;4.70;1.67;;;;;;;;;;4998482;28;20497;-71
2023/12/23 02:01:54;;;;;;;6.00;1.88;;;;;;;;;;4962418;28;20022;-72
2023/12/23 02:04:20;;;;;;;3.25;1.70;;;;;;;;;;4963616;28;20023;-71
2023/12/23 02:06:46;;;;;;;4.38;1.67;;;;;;;;;;4962806;28;20030;-71
2023/12/23 02:09:13;;;;;;;5.45;1.90;;;;;;;;;;4968956;28;21072;-71
2023/12/23 02:11:46;;;;;;;7.00;2.67;;;;;;;;;;4967918;28;20023;-71
2023/12/23 02:14:20;;;;;;;1.75;1.65;;;;;;;;;;4970463;28;20035;-71
2023/12/23 02:16:48;;;;;;;10.35;2.33;;;;;;;;;;4993509;28;20027;-71
2023/12/23 02:19:14;;;;;;;3.13;1.73;;;;;;;;;;5005142;28;20043;-71
2023/12/23 02:21:40;;;;;;;3.45;1.55;;;;;;;;;;4960100;28;20057;-70
2023/12/23 02:24:06;;;;;;;1.35;1.35;;;;;;;;;;4994949;28;20038;-71
2023/12/23 02:26:33;;;;;;;1.33;1.33;;;;;;;;;;4964257;28;20402;-71
2023/12/23 02:29:01;;;;;;;1.45;1.35;;;;;;;;;;4987464;28;20030;-71
2023/12/23 02:31:28;;;;;;;4.55;1.83;;;;;;;;;;4962338;28;20027;-72
2023/12/23 02:33:54;;;;;;;3.97;1.73;;;;;;;;;;4961493;28;20152;-71
2023/12/23 02:36:23;;;;;;;5.10;1.88;;;;;;;;;;4967526;28;20028;-71
2023/12/23 02:38:50;;;;;;;3.10;1.55;;;;;;;;;;4966328;28;20414;-72
2023/12/23 02:41:16;;;;;;;2.42;1.85;;;;;;;;;;4972611;28;20079;-72
2023/12/23 02:43:42;;;;;;;2.78;1.70;;;;;;;;;;4995372;28;20454;-72
2023/12/23 02:46:08;;;;;;;1.58;1.48;;;;;;;;;;4968437;28;20035;-71
2023/12/23 02:48:34;;;;;;;2.58;1.50;;;;;;;;;;4968740;28;20035;-72
2023/12/23 02:51:04;;;;;;;3.75;1.75;;;;;;;;;;4967338;28;20054;-70
2023/12/23 02:53:30;;;;;;;2.30;1.73;;;;;;;;;;4950056;28;20034;-71
2023/12/23 02:55:56;;;;;;;3.08;1.30;;;;;;;;;;4968242;28;20487;-71
2023/12/23 02:58:23;;;;;;;1.42;1.00;;;;;;;;;;5048982;28;20094;-71
2023/12/23 03:00:49;;;;;;;2.05;1.20;;;;;;;;;;5023084;28;20187;-71
2023/12/23 03:03:15;;;;;;;2.60;1.40;;;;;;;;;;5057027;28;20068;-72
2023/12/23 03:05:41;;;;;;;1.67;1.58;;;;;;;;;;5048118;28;20047;-72
2023/12/23 03:08:07;;;;;;;2.35;1.52;;;;;;;;;;5043912;28;20547;-75
2023/12/23 03:10:33;;;;;;;2.05;1.30;;;;;;;;;;5042415;28;20025;-72
2023/12/23 03:13:00;;;;;;;1.60;1.50;;;;;;;;;;5038732;28;20056;-72
2023/12/23 03:15:26;;;;;;;1.25;1.17;;;;;;;;;;5046023;28;20079;-72
2023/12/23 03:17:54;;;;;;;2.75;1.48;;;;;;;;;;5039988;28;20036;-72
2023/12/23 03:20:20;;;;;;;1.02;1.02;;;;;;;;;;5051881;28;20024;-72
2023/12/23 03:22:47;;;;;;;1.90;1.02;;;;;;;;;;5037874;28;20029;-72
2023/12/23 03:25:13;;;;;;;1.42;1.33;;;;;;;;;;5016180;28;20053;-71
2023/12/23 03:27:39;;;;;;;1.10;1.10;;;;;;;;;;5041666;28;20040;-71
2023/12/23 03:30:06;;;;;;;1.70;1.10;;;;;;;;;;5042085;28;20033;-71
2023/12/23 03:32:32;;;;;;;3.50;1.35;;;;;;;;;;5044250;28;20586;-72
2023/12/23 03:34:58;;;;;;;1.52;1.30;;;;;;;;;;5023207;28;20516;-72
2023/12/23 03:37:24;;;;;;;2.40;1.48;;;;;;;;;;5033010;28;20499;-71
2023/12/23 03:39:50;;;;;;;2.35;1.20;;;;;;;;;;5004355;28;20033;-71
2023/12/23 03:42:16;;;;;;;2.35;1.30;;;;;;;;;;5053667;28;20036;-72
2023/12/23 03:44:43;;;;;;;6.47;2.22;;;;;;;;;;5036076;28;20036;-71
2023/12/23 03:47:09;;;;;;;1.52;1.42;;;;;;;;;;5033261;28;20035;-71
2023/12/23 03:49:37;;;;;;;3.13;1.58;;;;;;;;;;5050611;28;20033;-71
2023/12/23 03:52:03;;;;;;;4.95;1.90;;;;;;;;;;5029678;28;20035;-72
2023/12/23 03:54:29;;;;;;;1.55;1.45;;;;;;;;;;5056996;28;20025;-71
2023/12/23 03:56:55;;;;;;;2.15;1.58;;;;;;;;;;5043844;28;20049;-71
2023/12/23 03:59:22;;;;;;;1.52;1.42;;;;;;;;;;4957685;28;20057;-72
2023/12/23 04:01:48;;;;;;;3.33;1.70;;;;;;;;;;4947417;28;20023;-71
2023/12/23 04:04:14;;;;;;;2.10;1.90;;;;;;;;;;4958804;28;20750;-71
2023/12/23 04:06:40;;;;;;;2.00;1.33;;;;;;;;;;5013502;28;20035;-71
2023/12/23 04:09:10;;;;;;;1.85;1.38;;;;;;;;;;4947579;28;20035;-71
2023/12/23 04:11:36;;;;;;;1.85;1.67;;;;;;;;;;4983704;28;20035;-71
2023/12/23 04:14:02;;;;;;;1.60;1.50;;;;;;;;;;4969055;28;20448;-72
2023/12/23 04:16:29;;;;;;;3.80;1.52;;;;;;;;;;4973916;28;20019;-71
2023/12/23 04:18:55;;;;;;;4.38;1.60;;;;;;;;;;4965188;28;20027;-72
2023/12/23 04:21:21;;;;;;;3.22;1.52;;;;;;;;;;4963107;28;20061;-71
2023/12/23 04:23:47;;;;;;;2.83;1.75;;;;;;;;;;4962497;28;20031;-72
2023/12/23 04:26:14;;;;;;;1.80;1.45;;;;;;;;;;4974280;28;20035;-71
2023/12/23 04:28:41;;;;;;;4.25;1.80;;;;;;;;;;4962289;28;20058;-72
2023/12/23 04:31:07;;;;;;;4.15;1.70;;;;;;;;;;4963479;28;20049;-71
2023/12/23 04:33:34;;;;;;;10.00;1.85;;;;;;;;;;4958725;28;20059;-71
2023/12/23 04:36:01;;;;;;;3.38;1.60;;;;;;;;;;4980559;28;20549;-71
2023/12/23 04:38:27;;;;;;;3.88;1.52;;;;;;;;;;4961788;28;20026;-72
2023/12/23 04:40:53;;;;;;;3.13;1.63;;;;;;;;;;4946270;28;20028;-71
2023/12/23 04:43:19;;;;;;;4.72;2.25;;;;;;;;;;4969393;28;20091;-71
2023/12/23 04:45:45;;;;;;;3.50;1.40;;;;;;;;;;4944136;28;20450;-71
2023/12/23 04:48:12;;;;;;;7.00;2.78;;;;;;;;;;4955174;28;20095;-72
2023/12/23 04:50:39;;;;;;;4.15;1.85;;;;;;;;;;4962315;28;20041;-71
2023/12/23 04:53:05;;;;;;;3.70;1.50;;;;;;;;;;4987187;28;20123;-71
2023/12/23 04:55:31;;;;;;;7.50;2.00;;;;;;;;;;4967061;28;20035;-71
2023/12/23 04:57:57;;;;;;;3.15;1.70;;;;;;;;;;4966669;28;20525;-72
2023/12/23 05:00:23;;;;;;;1.70;1.60;;;;;;;;;;4963247;28;20411;-71
2023/12/23 05:02:53;;;;;;;2.13;1.48;;;;;;;;;;4995122;28;20032;-71
2023/12/23 05:05:19;;;;;;;2.30;1.52;;;;;;;;;;5017428;28;20026;-71
2023/12/23 05:07:46;;;;;;;2.53;1.88;;;;;;;;;;4994257;28;20024;-72
2023/12/23 05:10:13;;;;;;;2.10;1.70;;;;;;;;;;4969532;28;20034;-71
2023/12/23 05:12:39;;;;;;;3.75;1.55;;;;;;;;;;4966542;28;20023;-72
2023/12/23 05:15:06;;;;;;;1.98;1.33;;;;;;;;;;4959897;28;20407;-71
2023/12/23 05:17:32;;;;;;;1.65;1.55;;;;;;;;;;4965020;28;20031;-71
2023/12/23 05:19:58;;;;;;;1.58;1.30;;;;;;;;;;4964738;28;20027;-71
2023/12/23 05:22:24;;;;;;;3.88;1.50;;;;;;;;;;4968809;28;20078;-72
2023/12/23 05:24:51;;;;;;;2.55;1.48;;;;;;;;;;4950014;28;20080;-71
2023/12/23 05:27:17;;;;;;;4.60;1.52;;;;;;;;;;4978351;28;20126;-72
2023/12/23 05:29:43;;;;;;;4.10;1.80;;;;;;;;;;4963148;28;20035;-72
2023/12/23 05:32:09;;;;;;;2.63;1.85;;;;;;;;;;4991711;28;20036;-71
2023/12/23 05:34:36;;;;;;;1.73;1.63;;;;;;;;;;4961892;28;20026;-71
2023/12/23 05:37:02;;;;;;;5.72;1.50;;;;;;;;;;4960233;28;20522;-71
2023/12/23 05:39:28;;;;;;;2.67;1.25;;;;;;;;;;4960128;28;20071;-71
2023/12/23 05:41:54;;;;;;;2.00;1.33;;;;;;;;;;4975170;28;20114;-71
2023/12/23 05:44:21;;;;;;;6.43;1.63;;;;;;;;;;4962298;28;20343;-71
2023/12/23 05:46:47;;;;;;;2.63;1.58;;;;;;;;;;4997796;28;20032;-71
2023/12/23 05:49:13;;;;;;;4.68;1.50;;;;;;;;;;4966446;28;20462;-71
2023/12/23 05:51:39;;;;;;;4.13;1.40;;;;;;;;;;4961023;28;20023;-71
2023/12/23 05:54:05;;;;;;;2.55;1.55;;;;;;;;;;4961938;28;20028;-71
2023/12/23 05:56:33;;;;;;;2.55;1.70;;;;;;;;;;4960265;28;20058;-71
2023/12/23 05:58:59;;;;;;;2.30;1.63;;;;;;;;;;4941557;28;20049;-70
2023/12/23 06:01:25;;;;;;;2.83;1.58;;;;;;;;;;4989086;28;20489;-71
2023/12/23 06:03:51;;;;;;;1.75;1.65;;;;;;;;;;5046187;28;20107;-72
2023/12/23 06:06:17;;;;;;;2.67;1.35;;;;;;;;;;5040042;28;20041;-71
2023/12/23 06:08:44;;;;;;;3.50;1.50;;;;;;;;;;5043328;28;20091;-71
2023/12/23 06:11:11;;;;;;;1.75;1.58;;;;;;;;;;5026541;28;20029;-71
2023/12/23 06:13:37;;;;;;;2.72;1.70;;;;;;;;;;5026371;28;20029;-71
2023/12/23 06:16:06;;;;;;;1.80;1.70;;;;;;;;;;5043730;28;20029;-72
2023/12/23 06:18:33;;;;;;;10.25;2.03;;;;;;;;;;5043353;28;20033;-71
2023/12/23 06:21:02;;;;;;;1.70;1.40;;;;;;;;;;5041848;28;20025;-71
2023/12/23 06:23:28;;;;;;;1.65;1.55;;;;;;;;;;5048149;28;20548;-70
2023/12/23 06:25:54;;;;;;;2.22;1.33;;;;;;;;;;5045939;28;20409;-71
2023/12/23 06:28:20;;;;;;;5.60;1.70;;;;;;;;;;5044948;28;20228;-71
2023/12/23 06:30:46;;;;;;;1.50;1.30;;;;;;;;;;5023243;28;20111;-71
2023/12/23 06:33:12;;;;;;;4.03;1.30;;;;;;;;;;5041620;28;20025;-71
2023/12/23 06:35:39;;;;;;;4.25;1.55;;;;;;;;;;5024096;28;20029;-71
2023/12/23 06:38:05;;;;;;;2.55;1.55;;;;;;;;;;5044142;28;20029;-72
2023/12/23 06:40:31;;;;;;;2.28;1.40;;;;;;;;;;5041688;28;20024;-71
2023/12/23 06:42:57;;;;;;;1.58;1.50;;;;;;;;;;5047178;28;20107;-72
2023/12/23 06:45:23;;;;;;;4.45;1.65;;;;;;;;;;5022519;28;20098;-71
2023/12/23 06:47:50;;;;;;;3.75;2.55;;;;;;;;;;5039343;28;20103;-70
2023/12/23 06:50:16;;;;;;;1.20;1.20;;;;;;;;;;5043843;28;20441;-70
2023/12/23 06:52:42;;;;;;;8.10;1.88;;;;;;;;;;5028012;28;20032;-71
2023/12/23 06:55:08;;;;;;;2.80;1.23;;;;;;;;;;5030302;28;20021;-71
2023/12/23 06:57:35;;;;;;;4.45;2.05;;;;;;;;;;4991642;28;20513;-71
2023/12/23 07:00:01;;;;;;;2.72;1.40;;;;;;;;;;4958084;28;20034;-71
2023/12/23 07:02:27;;;;;;;2.45;1.45;;;;;;;;;;4952112;28;20031;-71
2023/12/23 07:04:53;;;;;;;2.03;1.83;;;;;;;;;;4960559;28;20031;-71
2023/12/23 07:07:20;;;;;;;1.33;1.20;;;;;;;;;;4966351;28;20030;-71
2023/12/23 07:09:46;;;;;;;2.50;1.30;;;;;;;;;;4965484;28;20395;-71
2023/12/23 07:12:13;;;;;;;1.52;1.42;;;;;;;;;;4961723;28;20034;-71
2023/12/23 07:14:39;;;;;;;1.48;1.25;;;;;;;;;;4971810;28;20470;-70
2023/12/23 07:17:05;;;;;;;2.72;1.63;;;;;;;;;;4963978;28;20089;-71
2023/12/23 07:19:32;;;;;;;4.10;1.63;;;;;;;;;;4960624;28;20041;-71
2023/12/23 07:21:58;;;;;;;6.07;1.85;;;;;;;;;;4966617;28;20470;-71
2023/12/23 07:24:25;;;;;;;3.58;1.48;;;;;;;;;;4968365;28;20034;-70
2023/12/23 07:26:51;;;;;;;5.68;2.58;;;;;;;;;;4960608;28;20625;-71
2023/12/23 07:29:17;;;;;;;1.88;1.50;;;;;;;;;;4962217;28;20025;-71
2023/12/23 07:31:43;;;;;;;2.85;1.55;;;;;;;;;;4958143;28;20031;-72
2023/12/23 07:34:10;;;;;;;3.78;1.60;;;;;;;;;;4962084;28;20039;-71
2023/12/23 07:36:36;;;;;;;5.63;1.60;;;;;;;;;;4962686;28;20418;-71
2023/12/23 07:39:05;;;;;;;6.35;2.20;;;;;;;;;;4972167;28;20019;-71
2023/12/23 07:41:31;;;;;;;3.70;1.50;;;;;;;;;;4961832;28;20520;-71
2023/12/23 07:43:57;;;;;;;3.63;1.50;;;;;;;;;;4961610;28;20088;-72
2023/12/23 07:46:23;;;;;;;4.53;1.83;;;;;;;;;;4962853;28;20046;-71
2023/12/23 07:48:49;;;;;;;2.28;1.42;;;;;;;;;;4969559;28;20489;-71
2023/12/23 07:51:16;;;;;;;4.93;1.20;;;;;;;;;;4960525;28;20061;-71
2023/12/23 07:53:42;;;;;;;3.03;1.30;;;;;;;;;;4975902;28;20123;-73
2023/12/23 07:56:09;;;;;;;2.85;1.30;;;;;;;;;;4958294;28;20027;-71
2023/12/23 07:58:35;;;;;;;5.55;1.60;;;;;;;;;;4959052;28;20028;-71
2023/12/23 08:01:01;;;;;;;1.58;1.48;;;;;;;;;;4965787;28;20034;-71
2023/12/23 08:03:27;;;;;;;5.30;1.77;;;;;;;;;;4958816;28;20561;-72
2023/12/23 08:05:53;;;;;;;5.63;1.75;;;;;;;;;;4970286;28;20070;-71
2023/12/23 08:08:19;;;;;;;2.92;1.20;;;;;;;;;;4958685;28;20094;-71
2023/12/23 08:10:46;;;;;;;1.42;1.23;;;;;;;;;;4962043;28;20558;-71
2023/12/23 08:13:12;;;;;;;6.93;1.38;;;;;;;;;;4981128;28;20035;-71
2023/12/23 08:15:38;;;;;;;1.35;1.05;;;;;;;;;;4969576;28;20030;-71
2023/12/23 08:18:05;;;;;;;1.73;1.30;;;;;;;;;;4971735;28;20042;-71
2023/12/23 08:20:31;;;;;;;1.75;1.42;;;;;;;;;;4967248;28;20595;-73
2023/12/23 08:22:57;;;;;;;1.15;1.10;;;;;;;;;;4981002;28;20530;-71
2023/12/23 08:25:23;;;;;;;1.20;1.10;;;;;;;;;;4966595;28;20034;-71
2023/12/23 08:27:50;;;;;;;1.15;1.15;;;;;;;;;;4967759;28;20112;-71
2023/12/23 08:30:16;;;;;;;1.73;1.65;;;;;;;;;;4967417;28;20065;-72
2023/12/23 08:32:43;;;;;;;1.10;1.10;;;;;;;;;;4963159;28;20529;-72
2023/12/23 08:35:09;;;;;;;1.38;1.27;;;;;;;;;;4967819;28;20390;-71
2023/12/23 08:37:35;;;;;;;1.92;1.45;;;;;;;;;;4980481;28;20027;-71
2023/12/23 08:40:02;;;;;;;1.25;1.15;;;;;;;;;;4961658;28;20478;-72
2023/12/23 08:42:28;;;;;;;1.45;1.35;;;;;;;;;;4963219;28;20076;-71
2023/12/23 08:44:54;;;;;;;1.45;1.45;;;;;;;;;;4967113;28;20033;-72
2023/12/23 08:47:20;;;;;;;1.92;1.17;;;;;;;;;;4966858;28;20057;-72
2023/12/23 08:49:46;;;;;;;3.03;1.23;;;;;;;;;;4979924;28;20101;-71
2023/12/23 08:52:12;;;;;;;1.30;1.20;;;;;;;;;;4978063;28;20135;-70
2023/12/23 08:54:38;;;;;;;1.40;1.27;;;;;;;;;;4964954;28;20026;-71
2023/12/23 08:57:05;;;;;;;2.20;1.50;;;;;;;;;;4960750;28;20058;-71
2023/12/23 08:59:31;;;;;;;1.55;1.45;;;;;;;;;;4967845;28;20027;-72
2023/12/23 09:02:02;;;;;;;1.45;1.42;;;;;;;;;;4966819;28;20038;-71
2023/12/23 09:04:28;;;;;;;2.10;1.65;;;;;;;;;;4958773;28;20030;-71
2023/12/23 09:06:55;;;;;;;2.53;1.75;;;;;;;;;;4964914;28;20023;-72
2023/12/23 09:09:21;;;;;;;1.20;1.20;;;;;;;;;;4966706;28;20035;-72
2023/12/23 09:11:48;;;;;;;2.60;1.55;;;;;;;;;;4966085;28;20031;-70
2023/12/23 09:14:15;;;;;;;1.27;1.27;;;;;;;;;;4962482;28;20427;-72
2023/12/23 09:16:41;;;;;;;1.50;1.40;;;;;;;;;;4984537;28;20027;-72
2023/12/23 09:19:07;;;;;;;3.63;1.40;;;;;;;;;;4972449;28;20034;-72
2023/12/23 09:21:34;;;;;;;2.20;1.45;;;;;;;;;;4966519;28;20509;-72
2023/12/23 09:24:00;;;;;;;2.63;1.33;;;;;;;;;;4988206;28;20082;-71
2023/12/23 09:26:27;;;;;;;2.80;1.30;;;;;;;;;;4970877;28;20027;-72
2023/12/23 09:28:53;;;;;;;3.97;1.35;;;;;;;;;;4971019;28;20372;-72
2023/12/23 09:31:19;;;;;;;5.43;1.70;;;;;;;;;;4962981;28;20780;-72
2023/12/23 09:33:45;;;;;;;1.40;1.30;;;;;;;;;;4963509;28;20497;-72
2023/12/23 09:36:12;;;;;;;3.72;1.38;;;;;;;;;;4964174;28;20034;-72
2023/12/23 09:38:38;;;;;;;7.47;2.70;;;;;;;;;;4959767;28;20607;-72
2023/12/23 09:41:05;;;;;;;4.20;2.17;;;;;;;;;;4973819;28;20023;-72
2023/12/23 09:43:32;;;;;;;1.33;1.33;;;;;;;;;;4963706;28;20031;-72
2023/12/23 09:46:00;;;;;;;1.90;1.40;;;;;;;;;;4975887;28;20034;-72
2023/12/23 09:48:27;;;;;;;4.57;2.10;;;;;;;;;;4965211;28;20398;-73
2023/12/23 09:50:53;;;;;;;1.95;1.20;;;;;;;;;;4964159;28;20416;-72
2023/12/23 09:53:22;;;;;;;2.08;1.23;;;;;;;;;;4967092;28;20486;-71
2023/12/23 09:55:48;;;;;;;3.80;1.40;;;;;;;;;;4962323;28;20475;-72
2023/12/23 09:58:15;;;;;;;9.30;4.05;;;;;;;;;;4967237;28;20042;-71
2023/12/23 10:00:41;;;;;;;9.25;4.93;;;;;;;;;;4966195;28;20482;-72
2023/12/23 10:03:07;;;;;;;5.90;3.60;;;;;;;;;;4967330;28;20073;-72
2023/12/23 10:05:38;;;;;;;3.33;2.67;;;;;;;;;;4969226;28;20020;-71
2023/12/23 10:08:05;;;;;;;21.33;10.85;;;;;;;;;;4969306;28;20026;-71
2023/12/23 10:10:34;;;;;;;33.70;17.67;;;;;;;;;;4969828;28;20035;-72
2023/12/23 10:13:00;;;;;;;3.72;2.97;;;;;;;;;;4979308;28;20074;-72
2023/12/23 10:15:29;;;;;;;10.77;8.77;;;;;;;;;;4973729;28;20035;-71
2023/12/23 10:17:55;;;;;;;4.50;3.15;;;;;;;;;;4968942;28;20083;-72
2023/12/23 10:20:22;;;;;;;5.85;4.95;;;;;;;;;;4970558;28;20034;-72
2023/12/23 10:22:48;;;;;;;5.30;2.50;;;;;;;;;;4968771;28;20399;-71
2023/12/23 10:25:15;;;;;;;2.33;2.13;;;;;;;;;;4980375;28;20035;-71
2023/12/23 10:27:42;;;;;;;3.13;1.77;;;;;;;;;;4967393;28;20041;-72
2023/12/23 10:30:09;;;;;;;3.70;3.05;;;;;;;;;;4964709;28;20030;-72
2023/12/23 10:32:36;;;;;;;3.55;3.10;;;;;;;;;;4961716;28;20062;-72
2023/12/23 10:35:03;;;;;;;5.85;3.63;;;;;;;;;;4966830;28;20045;-72
2023/12/23 10:37:30;;;;;;;2.50;2.30;;;;;;;;;;4959959;28;20031;-73
2023/12/23 10:39:58;;;;;;;2.28;1.90;;;;;;;;;;4963289;28;20133;-71
2023/12/23 10:42:25;;;;;;;3.17;2.60;;;;;;;;;;4966610;28;20509;-73
2023/12/23 10:44:54;;;;;;;5.20;4.28;;;;;;;;;;4968736;28;20035;-72
2023/12/23 10:47:21;;;;;;;2.00;1.85;;;;;;;;;;4969018;28;20031;-72
2023/12/23 10:49:49;;;;;;;3.15;2.55;;;;;;;;;;4982426;28;20031;-73
2023/12/23 10:52:16;;;;;;;4.53;1.80;;;;;;;;;;4969966;28;20047;-72
2023/12/23 10:54:43;;;;;;;7.43;4.38;;;;;;;;;;4966324;28;20337;-73
2023/12/23 10:57:10;;;;;;;3.35;2.35;;;;;;;;;;4966566;28;20054;-74
2023/12/23 10:59:36;;;;;;;5.22;2.30;;;;;;;;;;4971467;28;20053;-72
2023/12/23 11:02:08;;;;;;;4.50;2.10;;;;;;;;;;4968500;28;20023;-73
2023/12/23 11:04:35;;;;;;;5.15;2.88;;;;;;;;;;4963903;28;20395;-73
2023/12/23 11:07:03;;;;;;;5.35;2.85;;;;;;;;;;4959690;28;20341;-72
2023/12/23 11:09:30;;;;;;;5.18;2.50;;;;;;;;;;4963415;28;20034;-73
2023/12/23 11:11:56;;;;;;;6.07;2.28;;;;;;;;;;4957801;28;20035;-72
2023/12/23 11:14:23;;;;;;;6.18;2.35;;;;;;;;;;4977707;28;20042;-72
2023/12/23 11:16:56;;;;;;;2.33;2.00;;;;;;;;;;4971384;28;20502;-71
2023/12/23 11:19:22;;;;;;;5.28;3.30;;;;;;;;;;4969516;28;20023;-72
2023/12/23 11:21:48;;;;;;;3.60;2.72;;;;;;;;;;4972478;28;20027;-72
2023/12/23 11:24:36;;;;;;;3.30;2.40;;;;;;;;;;4967169;28;20058;-73
2023/12/23 11:27:02;;;;;;;4.40;2.95;;;;;;;;;;4958993;28;20031;-73
2023/12/23 11:29:28;;;;;;;4.97;2.05;;;;;;;;;;4965425;28;20034;-70
2023/12/23 11:32:13;;;;;;;5.20;2.40;;;;;;;;;;4967536;28;20082;-72
2023/12/23 11:34:41;;;;;;;2.95;1.70;;;;;;;;;;4967979;28;20035;-71
2023/12/23 11:37:07;;;;;;;1.55;1.45;;;;;;;;;;4983787;28;20437;-72
2023/12/23 11:39:36;;;;;;;3.05;1.67;;;;;;;;;;5001622;28;20033;-72
2023/12/23 11:42:03;;;;;;;3.70;2.10;;;;;;;;;;4970336;28;20057;-71
2023/12/23 11:44:30;;;;;;;1.55;1.45;;;;;;;;;;4973794;28;20042;-72
2023/12/23 11:46:57;;;;;;;2.40;1.50;;;;;;;;;;4974492;28;20560;-72
2023/12/23 11:49:23;;;;;;;4.22;1.65;;;;;;;;;;4968563;28;20064;-72
2023/12/23 11:51:50;;;;;;;1.23;1.23;;;;;;;;;;4989373;28;20023;-72
2023/12/23 11:54:16;;;;;;;2.50;1.58;;;;;;;;;;4973333;28;20520;-72
2023/12/23 11:56:42;;;;;;;1.88;1.67;;;;;;;;;;4984160;28;20058;-72
2023/12/23 11:59:08;;;;;;;3.03;1.40;;;;;;;;;;4972281;28;20058;-72
2023/12/23 12:01:34;;;;;;;1.45;1.23;;;;;;;;;;4992651;28;20034;-72
2023/12/23 12:04:01;;;;;;;1.30;1.30;;;;;;;;;;4966940;28;20108;-72
2023/12/23 12:06:27;;;;;;;3.70;1.80;;;;;;;;;;4982897;28;20120;-72
2023/12/23 12:08:55;;;;;;;1.48;1.30;;;;;;;;;;4993045;28;20168;-71
2023/12/23 12:11:24;;;;;;;1.50;1.40;;;;;;;;;;4989292;28;20027;-73
2023/12/23 12:13:50;;;;;;;1.45;1.35;;;;;;;;;;5016017;28;20027;-72
2023/12/23 12:16:18;;;;;;;3.47;1.40;;;;;;;;;;4983428;28;20124;-72
2023/12/23 12:18:46;;;;;;;1.33;1.27;;;;;;;;;;4982236;28;20027;-73
2023/12/23 12:21:13;;;;;;;1.40;1.30;;;;;;;;;;4999028;28;20038;-72
2023/12/23 12:23:39;;;;;;;1.35;1.25;;;;;;;;;;4969128;28;20092;-72
2023/12/23 12:26:05;;;;;;;1.35;1.25;;;;;;;;;;4977272;28;20101;-72
2023/12/23 12:28:32;;;;;;;1.38;1.27;;;;;;;;;;4991941;28;20490;-71
2023/12/23 12:31:12;;;;;;;2.63;1.35;;;;;;;;;;4988161;28;20418;-73
2023/12/23 12:33:43;;;;;;;2.55;1.40;;;;;;;;;;4981966;28;20090;-72
2023/12/23 12:36:13;;;;;;;1.45;1.35;;;;;;;;;;4971554;28;20022;-72
2023/12/23 12:38:41;;;;;;;2.63;1.45;;;;;;;;;;4988248;28;20035;-72
2023/12/23 12:41:08;;;;;;;2.90;1.65;;;;;;;;;;4993678;28;20392;-72
2023/12/23 12:43:36;;;;;;;1.35;1.35;;;;;;;;;;4963029;28;20078;-72
2023/12/23 12:46:02;;;;;;;3.45;1.70;;;;;;;;;;4971190;28;20050;-72
2023/12/23 12:48:29;;;;;;;2.13;1.63;;;;;;;;;;4979366;28;20051;-72
2023/12/23 12:50:56;;;;;;;1.40;1.30;;;;;;;;;;4976310;28;20111;-72
2023/12/23 12:53:22;;;;;;;1.30;1.30;;;;;;;;;;4972115;28;20031;-72
2023/12/23 12:55:48;;;;;;;2.05;1.45;;;;;;;;;;4957499;28;20697;-72
2023/12/23 12:58:16;;;;;;;1.50;1.40;;;;;;;;;;5053752;28;20055;-71
2023/12/23 13:00:42;;;;;;;3.90;1.50;;;;;;;;;;5053765;28;20013;-71
2023/12/23 13:03:09;;;;;;;2.85;1.75;;;;;;;;;;5059948;28;20026;-72
2023/12/23 13:05:36;;;;;;;2.30;1.58;;;;;;;;;;5058862;28;20021;-72
2023/12/23 13:08:02;;;;;;;1.60;1.45;;;;;;;;;;5057448;28;20526;-72
2023/12/23 13:10:30;;;;;;;3.30;1.60;;;;;;;;;;5042443;28;20029;-73
2023/12/23 13:12:56;;;;;;;5.90;1.58;;;;;;;;;;5058539;28;20020;-72
2023/12/23 13:15:22;;;;;;;2.75;1.42;;;;;;;;;;5031141;28;20051;-71
2023/12/23 13:17:49;;;;;;;3.60;1.50;;;;;;;;;;5060563;28;20036;-71
2023/12/23 13:20:15;;;;;;;2.35;1.30;;;;;;;;;;5053461;28;20033;-72
2023/12/23 13:22:43;;;;;;;1.80;1.50;;;;;;;;;;5042318;28;20393;-72
2023/12/23 13:25:12;;;;;;;2.40;2.00;;;;;;;;;;5063365;28;20148;-72
2023/12/23 13:27:38;;;;;;;3.17;2.30;;;;;;;;;;5025280;28;20048;-72
2023/12/23 13:30:04;;;;;;;2.75;1.60;;;;;;;;;;5036583;28;20061;-71
2023/12/23 13:32:32;;;;;;;1.80;1.70;;;;;;;;;;5054177;28;20075;-72
2023/12/23 13:35:00;;;;;;;4.10;1.77;;;;;;;;;;5059253;28;20060;-72
2023/12/23 13:37:27;;;;;;;1.40;1.30;;;;;;;;;;5052418;28;20051;-72
2023/12/23 13:39:53;;;;;;;1.40;1.30;;;;;;;;;;5055475;28;20032;-71
2023/12/23 13:42:19;;;;;;;1.38;1.30;;;;;;;;;;5056679;28;20459;-71
2023/12/23 13:44:46;;;;;;;1.20;1.20;;;;;;;;;;5056386;28;20021;-71
2023/12/23 13:47:13;;;;;;;1.70;1.60;;;;;;;;;;5038889;28;20059;-72
2023/12/23 13:49:39;;;;;;;1.83;1.63;;;;;;;;;;5049813;28;20033;-71
2023/12/23 13:52:06;;;;;;;1.55;1.45;;;;;;;;;;5064860;28;20091;-72
2023/12/23 13:54:32;;;;;;;2.00;1.40;;;;;;;;;;5061048;28;20262;-72
2023/12/23 13:56:58;;;;;;;2.17;1.65;;;;;;;;;;5018373;28;20047;-71
2023/12/23 13:59:24;;;;;;;2.45;1.60;;;;;;;;;;4971868;28;20088;-72
2023/12/23 14:01:51;;;;;;;2.28;1.55;;;;;;;;;;4968821;28;20037;-71
2023/12/23 14:04:17;;;;;;;1.45;1.35;;;;;;;;;;4976090;28;20084;-72
2023/12/23 14:06:43;;;;;;;2.03;1.40;;;;;;;;;;4971572;28;20031;-72
2023/12/23 14:09:09;;;;;;;3.25;2.00;;;;;;;;;;4970945;28;20041;-71
2023/12/23 14:11:35;;;;;;;2.63;1.90;;;;;;;;;;4966867;28;20034;-75
2023/12/23 14:14:02;;;;;;;3.28;1.73;;;;;;;;;;4975377;28;20466;-71
2023/12/23 14:16:30;;;;;;;3.35;1.83;;;;;;;;;;4975282;28;20026;-72
2023/12/23 14:18:57;;;;;;;2.83;1.92;;;;;;;;;;4997739;28;20026;-72
2023/12/23 14:21:23;;;;;;;3.95;1.77;;;;;;;;;;4973497;28;20033;-72
2023/12/23 14:23:50;;;;;;;2.05;1.70;;;;;;;;;;4970683;28;20030;-72
2023/12/23 14:26:16;;;;;;;4.70;1.58;;;;;;;;;;4964526;28;20454;-71
2023/12/23 14:28:43;;;;;;;3.30;1.60;;;;;;;;;;4973502;28;20161;-72
2023/12/23 14:31:12;;;;;;;4.38;2.20;;;;;;;;;;4964630;28;20118;-71
2023/12/23 14:33:38;;;;;;;3.72;2.05;;;;;;;;;;4974178;28;20047;-71
2023/12/23 14:36:04;;;;;;;8.32;1.85;;;;;;;;;;4970764;28;20058;-72
2023/12/23 14:38:30;;;;;;;1.70;1.60;;;;;;;;;;4969608;28;20030;-71
2023/12/23 14:40:56;;;;;;;2.42;1.70;;;;;;;;;;4973526;28;20514;-71